createdAt,value
2019-05-20T00:00:08.744Z,12.20
2019-05-20T00:02:37.162Z,12.30
2019-05-20T00:05:05.821Z,12.30
2019-05-20T00:07:34.218Z,12.30
2019-05-20T00:10:02.905Z,12.20
2019-05-20T00:12:31.326Z,12.20
2019-05-20T00:14:59.775Z,12.20
2019-05-20T00:17:28.386Z,12.20
2019-05-20T00:19:56.852Z,12.10
2019-05-20T00:22:25.253Z,12.20
2019-05-20T00:24:53.668Z,12.10
2019-05-20T00:27:22.084Z,12.10
2019-05-20T00:29:50.489Z,12.10
2019-05-20T00:32:18.908Z,12.10
2019-05-20T00:34:47.319Z,12.10
2019-05-20T00:37:15.752Z,12.10
2019-05-20T00:39:44.153Z,12.20
2019-05-20T00:42:12.590Z,12.00
2019-05-20T00:44:40.989Z,12.00
2019-05-20T00:47:09.977Z,11.90
2019-05-20T00:49:38.392Z,11.90
2019-05-20T00:52:06.885Z,11.90
2019-05-20T00:54:35.397Z,11.90
2019-05-20T00:57:03.888Z,11.80
2019-05-20T00:59:32.288Z,11.90
2019-05-20T01:02:00.728Z,11.90
2019-05-20T01:04:29.166Z,11.90
2019-05-20T01:06:57.577Z,11.90
2019-05-20T01:09:25.999Z,11.90
2019-05-20T01:11:54.405Z,11.90
2019-05-20T01:14:22.952Z,11.90
2019-05-20T01:16:51.462Z,11.90
2019-05-20T01:19:19.875Z,11.90
2019-05-20T01:21:48.307Z,11.90
2019-05-20T01:24:16.732Z,11.90
2019-05-20T01:26:45.152Z,11.90
2019-05-20T01:29:13.599Z,11.80
2019-05-20T01:31:41.987Z,11.80
2019-05-20T01:34:10.475Z,11.80
2019-05-20T01:36:38.896Z,11.90
2019-05-20T01:39:07.600Z,11.90
2019-05-20T01:41:36.030Z,11.90
2019-05-20T01:44:04.504Z,11.80
2019-05-20T01:46:32.925Z,11.80
2019-05-20T01:49:01.332Z,11.80
2019-05-20T01:51:29.759Z,11.80
2019-05-20T01:53:58.166Z,11.80
2019-05-20T01:56:26.594Z,11.90
2019-05-20T01:58:54.995Z,11.90
2019-05-20T02:01:23.407Z,11.90
2019-05-20T02:03:51.817Z,11.80
2019-05-20T02:06:20.319Z,11.80
2019-05-20T02:08:48.711Z,11.80
2019-05-20T02:11:17.129Z,11.80
2019-05-20T02:13:53.294Z,11.80
2019-05-20T02:16:23.587Z,11.80
2019-05-20T02:18:51.994Z,11.80
2019-05-20T02:21:20.508Z,11.80
2019-05-20T02:23:48.977Z,11.80
2019-05-20T02:26:17.380Z,11.80
2019-05-20T02:28:45.825Z,11.90
2019-05-20T02:31:14.241Z,11.80
2019-05-20T02:33:51.761Z,11.90
2019-05-20T02:36:12.797Z,11.90
2019-05-20T02:38:41.220Z,11.80
2019-05-20T02:41:09.782Z,11.80
2019-05-20T02:43:38.260Z,11.70
2019-05-20T02:46:07.027Z,11.70
2019-05-20T02:48:35.543Z,11.80
2019-05-20T02:51:04.037Z,11.70
2019-05-20T02:53:32.448Z,11.70
2019-05-20T02:56:00.892Z,11.70
2019-05-20T02:58:29.357Z,11.70
2019-05-20T03:00:57.771Z,11.80
2019-05-20T03:03:26.198Z,11.70
2019-05-20T03:05:54.684Z,11.70
2019-05-20T03:08:23.123Z,11.70
2019-05-20T03:10:51.533Z,11.70
2019-05-20T03:13:19.965Z,11.70
2019-05-20T03:15:48.401Z,11.70
2019-05-20T03:18:16.810Z,11.70
2019-05-20T03:20:45.224Z,11.70
2019-05-20T03:23:13.640Z,11.70
2019-05-20T03:25:42.083Z,11.70
2019-05-20T03:28:10.505Z,11.70
2019-05-20T03:30:38.918Z,11.70
2019-05-20T03:33:07.340Z,11.70
2019-05-20T03:35:35.743Z,11.70
2019-05-20T03:38:04.172Z,11.70
2019-05-20T03:40:32.586Z,11.60
2019-05-20T03:43:01.017Z,11.70
2019-05-20T03:45:29.428Z,11.70
2019-05-20T03:47:57.833Z,11.80
2019-05-20T03:50:26.260Z,11.70
2019-05-20T03:52:54.741Z,11.70
2019-05-20T03:55:23.168Z,11.70
2019-05-20T03:57:51.594Z,11.70
2019-05-20T04:00:23.082Z,11.60
2019-05-20T04:02:51.503Z,11.60
2019-05-20T04:05:20.597Z,11.60
2019-05-20T04:07:49.009Z,11.50
2019-05-20T04:10:17.433Z,11.50
2019-05-20T04:12:45.841Z,11.50
2019-05-20T04:15:14.493Z,11.60
2019-05-20T04:17:42.926Z,11.60
2019-05-20T04:20:11.407Z,11.60
2019-05-20T04:22:39.830Z,11.50
2019-05-20T04:25:08.340Z,11.60
2019-05-20T04:27:36.759Z,11.60
2019-05-20T04:30:07.093Z,11.50
2019-05-20T04:32:35.621Z,11.60
2019-05-20T04:35:20.492Z,11.70
2019-05-20T04:37:35.120Z,11.70
2019-05-20T04:40:04.096Z,11.70
2019-05-20T04:42:32.529Z,11.70
2019-05-20T04:45:01.010Z,11.70
2019-05-20T04:47:29.441Z,11.60
2019-05-20T04:49:57.856Z,11.50
2019-05-20T04:52:26.275Z,11.50
2019-05-20T04:54:54.692Z,11.60
2019-05-20T04:57:23.184Z,11.70
2019-05-20T04:59:51.700Z,11.60
2019-05-20T05:02:20.115Z,11.50
2019-05-20T05:04:48.544Z,11.50
2019-05-20T05:07:16.944Z,11.50
2019-05-20T05:09:45.380Z,11.50
2019-05-20T05:12:13.797Z,11.50
2019-05-20T05:14:42.417Z,11.50
2019-05-20T05:17:10.888Z,11.50
2019-05-20T05:19:39.301Z,11.60
2019-05-20T05:22:07.783Z,11.50
2019-05-20T05:24:36.302Z,11.60
2019-05-20T05:27:04.945Z,11.60
2019-05-20T05:29:33.364Z,11.60
2019-05-20T05:32:01.782Z,11.60
2019-05-20T05:34:30.196Z,11.60
2019-05-20T05:36:58.617Z,11.70
2019-05-20T05:39:27.028Z,11.70
2019-05-20T05:41:55.522Z,11.70
2019-05-20T05:44:23.938Z,11.70
2019-05-20T05:46:52.352Z,11.70
2019-05-20T05:49:20.784Z,11.70
2019-05-20T05:51:49.233Z,11.70
2019-05-20T05:54:17.634Z,11.70
2019-05-20T05:56:46.057Z,11.80
2019-05-20T05:59:14.505Z,11.80
2019-05-20T06:01:42.913Z,11.70
2019-05-20T06:04:11.324Z,11.70
2019-05-20T06:06:39.753Z,11.60
2019-05-20T06:09:08.172Z,11.70
2019-05-20T06:11:36.596Z,11.60
2019-05-20T06:14:05.182Z,11.60
2019-05-20T06:16:36.967Z,11.70
2019-05-20T06:19:03.736Z,11.70
2019-05-20T06:21:32.164Z,11.60
2019-05-20T06:24:00.594Z,11.70
2019-05-20T06:26:29.035Z,11.70
2019-05-20T06:28:57.520Z,11.70
2019-05-20T06:31:25.944Z,11.60
2019-05-20T06:33:54.427Z,11.60
2019-05-20T06:36:26.794Z,11.60
2019-05-20T06:38:54.656Z,11.70
2019-05-20T06:41:23.302Z,11.70
2019-05-20T06:43:51.714Z,11.70
2019-05-20T06:46:20.137Z,11.70
2019-05-20T06:48:48.628Z,11.60
2019-05-20T06:51:17.052Z,11.70
2019-05-20T06:53:45.476Z,11.60
2019-05-20T06:56:13.969Z,11.70
2019-05-20T06:58:42.376Z,11.70
2019-05-20T07:01:10.852Z,11.70
2019-05-20T07:03:39.288Z,11.70
2019-05-20T07:06:07.692Z,11.70
2019-05-20T07:08:36.114Z,11.70
2019-05-20T07:11:04.592Z,11.70
2019-05-20T07:13:33.062Z,11.70
2019-05-20T07:16:01.708Z,11.70
2019-05-20T07:18:30.158Z,11.80
2019-05-20T07:20:58.626Z,11.80
2019-05-20T07:23:27.108Z,11.80
2019-05-20T07:25:55.524Z,11.80
2019-05-20T07:28:23.951Z,11.90
2019-05-20T07:30:52.838Z,11.90
2019-05-20T07:33:21.261Z,11.80
2019-05-20T07:35:49.669Z,11.90
2019-05-20T07:38:18.122Z,11.90
2019-05-20T07:40:46.572Z,11.90
2019-05-20T07:43:15.002Z,11.90
2019-05-20T07:45:44.058Z,11.90
2019-05-20T07:48:13.109Z,11.90
2019-05-20T07:50:42.573Z,11.90
2019-05-20T07:53:13.336Z,12.00
2019-05-20T07:55:57.636Z,12.10
2019-05-20T07:58:29.493Z,12.10
2019-05-20T08:00:57.956Z,12.20
2019-05-20T08:03:26.402Z,12.20
2019-05-20T08:05:54.809Z,12.20
2019-05-20T08:08:24.008Z,12.30
2019-05-20T08:10:52.445Z,12.30
2019-05-20T08:13:20.864Z,12.20
2019-05-20T08:15:49.283Z,12.20
2019-05-20T08:18:20.136Z,12.40
2019-05-20T08:20:47.839Z,12.30
2019-05-20T08:23:16.275Z,12.20
2019-05-20T08:25:44.732Z,12.10
2019-05-20T08:28:13.168Z,12.10
2019-05-20T08:30:41.593Z,12.20
2019-05-20T08:33:11.300Z,12.20
2019-05-20T08:35:39.783Z,12.20
2019-05-20T08:38:08.269Z,12.30
2019-05-20T08:40:36.761Z,12.30
2019-05-20T08:43:05.248Z,12.40
2019-05-20T08:45:33.861Z,12.40
2019-05-20T08:48:02.276Z,12.40
2019-05-20T08:50:30.768Z,12.40
2019-05-20T08:52:59.180Z,12.50
2019-05-20T08:55:27.598Z,12.50
2019-05-20T08:57:56.034Z,12.50
2019-05-20T09:00:25.525Z,12.50
2019-05-20T09:02:54.386Z,12.50
2019-05-20T09:05:22.788Z,12.60
2019-05-20T09:08:02.304Z,12.70
2019-05-20T09:10:21.580Z,12.60
2019-05-20T09:12:50.007Z,12.60
2019-05-20T09:15:19.452Z,12.60
2019-05-20T09:17:47.887Z,12.60
2019-05-20T09:20:16.668Z,12.60
2019-05-20T09:22:45.140Z,12.70
2019-05-20T09:25:14.561Z,12.80
2019-05-20T09:27:43.228Z,12.70
2019-05-20T09:30:13.192Z,12.80
2019-05-20T09:32:42.996Z,12.80
2019-05-20T09:35:12.167Z,12.70
2019-05-20T09:37:40.655Z,12.70
2019-05-20T09:40:09.382Z,12.70
2019-05-20T09:42:40.796Z,12.70
2019-05-20T09:45:09.224Z,12.80
2019-05-20T09:47:37.661Z,12.80
2019-05-20T09:50:06.659Z,12.90
2019-05-20T09:52:35.121Z,12.90
2019-05-20T09:55:06.168Z,12.80
2019-05-20T09:57:34.601Z,12.80
2019-05-20T10:00:05.043Z,12.80
2019-05-20T10:02:37.770Z,12.80
2019-05-20T10:05:04.775Z,12.90
2019-05-20T10:07:33.350Z,12.90
2019-05-20T10:10:01.817Z,13.10
2019-05-20T10:12:45.577Z,13.20
2019-05-20T10:15:00.372Z,13.20
2019-05-20T10:17:28.791Z,13.30
2019-05-20T10:19:57.205Z,13.30
2019-05-20T10:22:25.619Z,13.40
2019-05-20T10:24:54.112Z,13.50
2019-05-20T10:27:22.520Z,13.60
2019-05-20T10:29:50.972Z,13.50
2019-05-20T10:32:19.436Z,13.50
2019-05-20T10:34:47.849Z,13.60
2019-05-20T10:37:16.282Z,13.60
2019-05-20T10:39:44.692Z,13.60
2019-05-20T10:42:14.011Z,13.70
2019-05-20T10:44:42.441Z,13.70
2019-05-20T10:47:10.860Z,13.80
2019-05-20T10:49:39.338Z,13.70
2019-05-20T10:52:07.795Z,13.70
2019-05-20T10:54:36.234Z,13.70
2019-05-20T10:57:04.637Z,13.70
2019-05-20T10:59:33.056Z,13.80
2019-05-20T11:02:02.844Z,13.90
2019-05-20T11:04:35.421Z,14.00
2019-05-20T11:07:02.693Z,14.10
2019-05-20T11:09:31.093Z,14.20
2019-05-20T11:11:59.513Z,14.40
2019-05-20T11:14:27.943Z,14.30
2019-05-20T11:16:56.367Z,14.30
2019-05-20T11:19:24.794Z,14.30
2019-05-20T11:21:53.229Z,14.50
2019-05-20T11:24:21.643Z,14.40
2019-05-20T11:26:50.077Z,14.60
2019-05-20T11:29:18.726Z,14.80
2019-05-20T11:31:47.466Z,14.90
2019-05-20T11:34:15.896Z,14.70
2019-05-20T11:36:44.303Z,14.40
2019-05-20T11:39:12.709Z,14.20
2019-05-20T11:41:52.656Z,14.30
2019-05-20T11:44:12.028Z,14.10
2019-05-20T11:46:40.705Z,14.10
2019-05-20T11:49:09.131Z,14.00
2019-05-20T11:51:37.532Z,14.10
2019-05-20T11:54:06.029Z,14.00
2019-05-20T11:56:35.153Z,14.00
2019-05-20T11:59:04.711Z,14.10
2019-05-20T12:01:34.117Z,13.90
2019-05-20T12:04:02.542Z,13.80
2019-05-20T12:06:30.961Z,13.70
2019-05-20T12:08:59.381Z,13.50
2019-05-20T12:11:27.793Z,13.50
2019-05-20T12:13:56.221Z,13.50
2019-05-20T12:16:24.636Z,13.30
2019-05-20T12:18:53.712Z,13.10
2019-05-20T12:21:22.133Z,13.00
2019-05-20T12:23:50.562Z,12.90
2019-05-20T12:26:22.475Z,12.80
2019-05-20T12:28:49.117Z,12.80
2019-05-20T12:31:17.704Z,12.70
2019-05-20T12:33:46.128Z,12.60
2019-05-20T12:36:14.538Z,12.60
2019-05-20T12:38:42.961Z,12.60
2019-05-20T12:41:11.371Z,12.60
2019-05-20T12:43:39.790Z,12.70
2019-05-20T12:46:08.217Z,12.60
2019-05-20T12:48:36.629Z,12.60
2019-05-20T12:51:06.885Z,12.60
2019-05-20T12:53:35.299Z,12.60
2019-05-20T12:56:03.715Z,12.60
2019-05-20T12:58:32.124Z,12.70
2019-05-20T13:01:00.560Z,12.70
2019-05-20T13:03:28.973Z,12.70
2019-05-20T13:05:57.453Z,12.70
2019-05-20T13:08:25.866Z,12.70
2019-05-20T13:10:54.320Z,12.60
2019-05-20T13:13:22.731Z,12.60
2019-05-20T13:15:51.162Z,12.50
2019-05-20T13:18:19.634Z,12.40
2019-05-20T13:20:48.127Z,12.40
2019-05-20T13:23:16.600Z,12.30
2019-05-20T13:25:46.645Z,12.30
2019-05-20T13:28:15.084Z,12.30
2019-05-20T13:30:43.500Z,12.20
2019-05-20T13:33:11.920Z,12.30
2019-05-20T13:35:40.368Z,12.30
2019-05-20T13:38:08.796Z,12.20
2019-05-20T13:40:46.582Z,12.20
2019-05-20T13:43:07.345Z,12.20
2019-05-20T13:45:35.765Z,12.10
2019-05-20T13:48:04.189Z,12.10
2019-05-20T13:50:32.613Z,12.10
2019-05-20T13:53:01.032Z,12.10
2019-05-20T13:55:29.454Z,12.20
2019-05-20T13:57:57.870Z,12.20
2019-05-20T14:00:26.617Z,12.20
2019-05-20T14:02:55.061Z,12.20
2019-05-20T14:05:23.478Z,12.10
2019-05-20T14:07:51.891Z,12.10
2019-05-20T14:10:20.621Z,12.20
2019-05-20T14:12:49.036Z,12.20
2019-05-20T14:15:17.687Z,12.20
2019-05-20T14:17:46.417Z,12.30
2019-05-20T14:20:16.944Z,12.30
2019-05-20T14:22:45.360Z,12.40
2019-05-20T14:25:14.039Z,12.50
2019-05-20T14:27:42.535Z,12.40
2019-05-20T14:30:11.601Z,12.50
2019-05-20T14:32:40.048Z,12.40
2019-05-20T14:35:08.998Z,12.40
2019-05-20T14:37:37.417Z,12.40
2019-05-20T14:40:07.961Z,12.40
2019-05-20T14:42:36.464Z,12.40
2019-05-20T14:45:06.516Z,12.40
2019-05-20T14:47:34.936Z,12.40
2019-05-20T14:50:05.088Z,12.40
2019-05-20T14:52:33.509Z,12.40
2019-05-20T14:55:01.936Z,12.40
2019-05-20T14:57:30.342Z,12.30
2019-05-20T14:59:58.836Z,12.20
2019-05-20T15:02:30.926Z,12.20
2019-05-20T15:04:57.516Z,12.20
2019-05-20T15:07:30.686Z,12.20
2019-05-20T15:09:56.139Z,12.10
2019-05-20T15:12:24.563Z,12.10
2019-05-20T15:14:52.977Z,12.10
2019-05-20T15:17:21.405Z,12.20
2019-05-20T15:19:49.992Z,12.20
2019-05-20T15:22:18.413Z,12.30
2019-05-20T15:24:46.856Z,12.40
2019-05-20T15:27:15.371Z,12.40
2019-05-20T15:29:43.897Z,12.40
2019-05-20T15:32:12.301Z,12.40
2019-05-20T15:34:40.725Z,12.50
2019-05-20T15:37:09.140Z,12.60
2019-05-20T15:39:37.571Z,12.60
2019-05-20T15:42:06.021Z,12.70
2019-05-20T15:44:34.523Z,12.60
2019-05-20T15:47:03.071Z,12.60
2019-05-20T15:49:31.492Z,12.60
2019-05-20T15:51:59.922Z,12.60
2019-05-20T15:54:28.322Z,12.70
2019-05-20T15:56:56.774Z,12.70
2019-05-20T15:59:25.193Z,12.60
2019-05-20T16:01:53.617Z,12.60
2019-05-20T16:04:23.400Z,12.60
2019-05-20T16:06:51.966Z,12.60
2019-05-20T16:09:20.419Z,12.70
2019-05-20T16:11:48.866Z,12.60
2019-05-20T16:14:17.281Z,12.50
2019-05-20T16:16:45.798Z,12.40
2019-05-20T16:19:14.293Z,12.30
2019-05-20T16:21:47.087Z,12.20
2019-05-20T16:24:12.969Z,12.10
2019-05-20T16:26:41.447Z,12.10
2019-05-20T16:29:09.859Z,12.20
2019-05-20T16:31:38.275Z,12.10
2019-05-20T16:34:06.779Z,12.10
2019-05-20T16:36:35.229Z,12.20
2019-05-20T16:39:05.260Z,12.20
2019-05-20T16:41:34.348Z,12.20
2019-05-20T16:44:02.861Z,12.20
2019-05-20T16:46:31.361Z,12.20
2019-05-20T16:48:59.954Z,12.30
2019-05-20T16:51:28.601Z,12.30
2019-05-20T16:53:57.156Z,12.30
2019-05-20T16:56:26.176Z,12.30
2019-05-20T16:58:54.747Z,12.30
2019-05-20T17:01:23.320Z,12.20
2019-05-20T17:03:54.884Z,12.20
2019-05-20T17:06:27.485Z,12.20
2019-05-20T17:08:54.762Z,12.20
2019-05-20T17:11:23.225Z,12.20
2019-05-20T17:13:51.756Z,12.10
2019-05-20T17:16:21.824Z,12.00
2019-05-20T17:18:50.570Z,12.10
2019-05-20T17:21:19.024Z,12.00
2019-05-20T17:23:47.541Z,12.00
2019-05-20T17:26:16.278Z,12.00
2019-05-20T17:28:44.926Z,12.00
2019-05-20T17:31:13.437Z,11.90
2019-05-20T17:33:42.961Z,12.00
2019-05-20T17:36:11.570Z,12.00
2019-05-20T17:38:40.070Z,11.90
2019-05-20T17:41:08.610Z,11.90
2019-05-20T17:43:37.139Z,11.90
2019-05-20T17:46:06.567Z,12.00
2019-05-20T17:48:35.344Z,11.90
2019-05-20T17:51:03.853Z,12.00
2019-05-20T17:53:32.491Z,12.00
2019-05-20T17:56:01.107Z,12.00
2019-05-20T17:58:29.893Z,12.00
2019-05-20T18:01:14.235Z,12.00
2019-05-20T18:03:29.062Z,11.90
2019-05-20T18:05:57.937Z,12.00
2019-05-20T18:08:28.357Z,12.00
2019-05-20T18:10:57.256Z,12.00
2019-05-20T18:13:26.258Z,12.00
2019-05-20T18:15:55.077Z,11.90
2019-05-20T18:18:28.549Z,12.00
2019-05-20T18:20:57.751Z,11.90
2019-05-20T18:23:26.798Z,11.90
2019-05-20T18:25:56.043Z,11.90
2019-05-20T18:28:25.246Z,12.00
2019-05-20T18:30:55.313Z,12.00
2019-05-20T18:33:24.759Z,11.90
2019-05-20T18:35:53.655Z,12.00
2019-05-20T18:38:22.697Z,12.00
2019-05-20T18:40:52.349Z,11.90
2019-05-20T18:43:22.002Z,12.00
2019-05-20T18:45:52.211Z,12.00
2019-05-20T18:48:25.714Z,11.90
2019-05-20T18:50:56.224Z,12.00
2019-05-20T18:53:26.357Z,12.00
2019-05-20T18:55:56.536Z,12.00
2019-05-20T18:58:26.797Z,11.90
2019-05-20T19:00:56.536Z,12.00
2019-05-20T19:03:27.130Z,11.90
2019-05-20T19:05:57.759Z,12.00
2019-05-20T19:08:27.803Z,12.00
2019-05-20T19:10:57.776Z,12.00
2019-05-20T19:13:27.772Z,12.00
2019-05-20T19:16:00.486Z,12.00
2019-05-20T19:18:30.505Z,12.00
2019-05-20T19:21:00.585Z,12.00
2019-05-20T19:23:30.576Z,12.00
2019-05-20T19:26:00.612Z,12.00
2019-05-20T19:28:33.150Z,11.90
2019-05-20T19:31:02.973Z,11.90
2019-05-20T19:33:32.895Z,11.90
2019-05-20T19:36:02.843Z,11.90
2019-05-20T19:38:34.941Z,11.90
2019-05-20T19:41:04.574Z,11.80
2019-05-20T19:43:34.586Z,11.80
2019-05-20T19:46:04.561Z,11.70
2019-05-20T19:48:34.709Z,11.70
2019-05-20T19:51:04.778Z,11.60
2019-05-20T19:53:34.958Z,11.60
2019-05-20T19:56:04.874Z,11.50
2019-05-20T19:58:35.107Z,11.50
2019-05-20T20:01:05.229Z,11.50
2019-05-20T20:03:35.088Z,11.50
2019-05-20T20:06:04.897Z,11.40
2019-05-20T20:08:35.014Z,11.40
2019-05-20T20:11:05.235Z,11.40
2019-05-20T20:13:34.814Z,11.40
2019-05-20T20:16:04.622Z,11.40
2019-05-20T20:18:33.998Z,11.40
2019-05-20T20:21:09.240Z,11.40
2019-05-20T20:23:38.747Z,11.40
2019-05-20T20:26:07.984Z,11.40
2019-05-20T20:28:36.979Z,11.40
2019-05-20T20:31:05.537Z,11.40
2019-05-20T20:33:34.353Z,11.40
2019-05-20T20:36:03.270Z,11.30
2019-05-20T20:38:31.762Z,11.30
2019-05-20T20:41:00.328Z,11.30
2019-05-20T20:43:32.012Z,11.40
2019-05-20T20:45:59.081Z,11.30
2019-05-20T20:48:27.508Z,11.40
2019-05-20T20:50:55.976Z,11.30
2019-05-20T20:53:24.392Z,11.40
2019-05-20T20:55:52.830Z,11.40
2019-05-20T20:58:21.229Z,11.40
2019-05-20T21:00:49.640Z,11.20
2019-05-20T21:03:18.080Z,11.20
2019-05-20T21:05:46.564Z,11.10
2019-05-20T21:08:14.977Z,11.10
2019-05-20T21:10:43.457Z,11.10
2019-05-20T21:13:11.971Z,11.10
2019-05-20T21:15:40.433Z,11.10
2019-05-20T21:18:10.360Z,11.20
2019-05-20T21:20:38.756Z,11.30
2019-05-20T21:23:07.279Z,11.30
2019-05-20T21:25:35.692Z,11.30
2019-05-20T21:28:04.120Z,11.30
2019-05-20T21:30:32.527Z,11.40
2019-05-20T21:33:09.081Z,11.30
2019-05-20T21:35:31.088Z,11.30
2019-05-20T21:37:59.508Z,11.40
2019-05-20T21:40:27.921Z,11.30
2019-05-20T21:42:56.361Z,11.30
2019-05-20T21:45:28.746Z,11.30
2019-05-20T21:47:57.384Z,11.20
2019-05-20T21:50:25.801Z,11.20
2019-05-20T21:52:54.212Z,11.20
2019-05-20T21:55:22.631Z,11.20
2019-05-20T21:57:51.054Z,11.20
2019-05-20T22:00:22.686Z,11.10
2019-05-20T22:02:51.222Z,11.10
2019-05-20T22:05:19.712Z,11.10
2019-05-20T22:07:48.117Z,11.10
2019-05-20T22:10:16.540Z,11.10
2019-05-20T22:12:44.948Z,11.00
2019-05-20T22:15:13.503Z,11.00
2019-05-20T22:17:41.915Z,11.00
2019-05-20T22:20:11.180Z,11.00
2019-05-20T22:22:41.236Z,11.00
2019-05-20T22:25:09.900Z,11.00
2019-05-20T22:27:38.312Z,11.00
2019-05-20T22:30:08.169Z,11.00
2019-05-20T22:32:36.582Z,11.10
2019-05-20T22:35:07.206Z,11.00
2019-05-20T22:37:35.624Z,11.00
2019-05-20T22:40:06.180Z,11.00
2019-05-20T22:42:35.316Z,11.10
2019-05-20T22:45:04.972Z,11.10
2019-05-20T22:47:33.400Z,11.10
2019-05-20T22:50:01.840Z,11.10
2019-05-20T22:52:30.264Z,11.20
2019-05-20T22:54:58.711Z,11.20
2019-05-20T22:57:27.136Z,11.20
2019-05-20T22:59:55.549Z,11.30
2019-05-20T23:02:23.963Z,11.30
2019-05-20T23:04:52.373Z,11.30
2019-05-20T23:07:20.798Z,11.30
2019-05-20T23:09:49.383Z,11.30
2019-05-20T23:12:17.829Z,11.40
2019-05-20T23:14:46.233Z,11.40
2019-05-20T23:17:14.937Z,11.50
2019-05-20T23:19:43.348Z,11.50
2019-05-20T23:22:11.776Z,11.50
2019-05-20T23:24:40.224Z,11.50
2019-05-20T23:27:08.648Z,11.50
2019-05-20T23:29:37.070Z,11.50
2019-05-20T23:32:05.481Z,11.50
2019-05-20T23:34:33.904Z,11.50
2019-05-20T23:37:02.324Z,11.50
2019-05-20T23:39:30.746Z,11.50
2019-05-20T23:41:59.165Z,11.50
2019-05-20T23:44:27.576Z,11.50
2019-05-20T23:46:56.003Z,11.50
2019-05-20T23:49:24.456Z,11.40
2019-05-20T23:51:52.904Z,11.50
2019-05-20T23:54:21.366Z,11.50
2019-05-20T23:56:49.808Z,11.50
2019-05-20T23:59:18.245Z,11.40
